Flight Track Log - Related Links

Times and Time Zones

All times are in EDT time to prevent confusion due to time zone crossing. See the GJS3618 flight status page for this flight to view local times or setup timezone preferences in your user account.


Time Position Orientation Groundspeed Altitude Reporting Facility
EDT Latitude Longitude Course Direction KTS MPH feet Rate Location/Type
Thu 07:27:07 AM 41.2883 -95.8869 278° West 145 167 1,800  Level Minneapolis Center
Thu 07:27:41 AM 41.2719 -95.8814 166° South 148 170 2,400 1,579 Climbing Minneapolis Center
Thu 07:28:42 AM 41.2178 -95.8881 185° South 187 215 4,300 2,262 Climbing Minneapolis Center
Thu 07:29:43 AM 41.1525 -95.8936 184° South 221 254 7,000 2,164 Climbing Minneapolis Center
Thu 07:30:00 AM 41.3167 -96.4426 270° West  Level FlightAware Approximate
Thu 07:30:44 AM 41.1053 -95.9481 221° Southwest 262 302 8,700  Level Minneapolis Center
Thu 07:31:00 AM 41.3167 -96.5826 270° West  Level FlightAware Approximate
Thu 07:31:44 AM 41.1197 -96.0550 280° West 289 333 10,700  Level Minneapolis Center
Thu 07:32:00 AM 41.3256 -96.7219 278° West  Level FlightAware Approximate
Thu 07:32:45 AM 41.1339 -96.1733 279° West 313 360 12,300  Level Minneapolis Center
Thu 07:33:46 AM 41.1489 -96.3058 279° West 348 400 13,700 1,672 Climbing Minneapolis Center
Thu 07:34:47 AM 41.1661 -96.4428 280° West 368 423 15,700 2,066 Climbing Minneapolis Center
Thu 07:35:48 AM 41.1853 -96.6053 279° West 371 427 17,900 1,770 Climbing Minneapolis Center
Thu 07:36:49 AM 41.2014 -96.7442 279° West 377 434 19,300 1,377 Climbing Minneapolis Center
Thu 07:37:50 AM 41.2172 -96.8897 278° West 393 452 20,700 1,426 Climbing Minneapolis Center
Thu 07:38:51 AM 41.2353 -97.0378 279° West 403 464 22,200 1,426 Climbing Minneapolis Center
Thu 07:39:52 AM 41.2256 -97.1872 265° West 405 466 23,600 1,254 Climbing Minneapolis Center
Thu 07:41:05 AM 41.2069 -97.3378 261° West 412 474 25,000 1,299 Climbing Minneapolis Center
Thu 07:42:06 AM 41.1853 -97.5331 262° West 417 480 26,500 1,279 Climbing Minneapolis Center
Thu 07:43:07 AM 41.1681 -97.6861 262° West 419 482 27,600 851 Climbing Minneapolis Center
Thu 07:44:20 AM 41.1497 -97.8442 261° West 428 493 28,400 781 Climbing Minneapolis Center
Thu 07:45:33 AM 41.1269 -98.0381 261° West 440 506 29,500 1,030 Climbing Minneapolis Center
Thu 07:46:34 AM 41.1033 -98.2333 261° West 446 513 30,700 1,082 Climbing Minneapolis Center
Thu 07:47:35 AM 41.0839 -98.3956 261° West 446 513 31,700 836 Climbing Minneapolis Center
Thu 07:48:36 AM 41.0653 -98.5417 260° West 445 512 32,400 604 Climbing Minneapolis Center
Thu 07:50:14 AM 41.0275 -98.8064 259° West 460 529 33,300 604 Climbing Minneapolis Center
Thu 07:51:15 AM 41.0061 -99.0131 262° West 471 542 34,000 639 Climbing Minneapolis Center
Thu 07:52:16 AM 40.9856 -99.1806 261° West 471 542 34,600 638 Climbing Minneapolis Center
Thu 07:52:49 AM 40.9722 -99.2828 260° West 472 543 35,000 766 Climbing Denver Center
Thu 07:53:50 AM 40.9508 -99.4536 261° West 471 542 35,800 793 Climbing Denver Center
Thu 07:54:50 AM 40.9292 -99.6211 260° West 465 535 36,600 750 Climbing Denver Center
Thu 07:55:50 AM 40.9064 -99.7894 260° West 464 534 37,300 550 Climbing Denver Center
Thu 07:56:50 AM 40.8858 -99.9392 260° West 464 534 37,700 347 Climbing Denver Center
Thu 07:57:51 AM 40.8600 -100.1283 260° West 468 539 38,000 149 Climbing Denver Center
Thu 07:58:51 AM 40.8375 -100.2908 260° West 470 541 38,000  Level Denver Center
Thu 07:59:51 AM 40.8153 -100.4525 260° West 467 537 38,000  Level Denver Center
Thu 08:00:52 AM 40.7917 -100.6128 259° West 464 534 38,000  Level Denver Center
Thu 08:01:52 AM 40.7611 -100.7864 257° West 489 563 38,000  Level Denver Center
Thu 08:02:52 AM 40.7336 -100.9733 259° West 465 535 38,000  Level Denver Center
Thu 08:03:53 AM 40.7075 -101.1300 258° West 457 526 38,000  Level Denver Center
Thu 08:04:53 AM 40.6814 -101.2842 257° West 454 522 38,000  Level Denver Center
Thu 08:05:54 AM 40.6503 -101.4647 257° West 454 522 38,000  Level Denver Center
Thu 08:06:54 AM 40.6217 -101.6194 256° West 454 522 38,000  Level Denver Center
Thu 08:07:54 AM 40.5933 -101.7772 257° West 461 531 38,000  Level Denver Center
Thu 08:08:55 AM 40.5656 -101.9333 257° West 460 529 38,000  Level Denver Center
Thu 08:09:55 AM 40.5325 -102.1122 256° West 452 520 38,000  Level Denver Center
Thu 08:10:56 AM 40.5039 -102.2656 256° West 451 519 38,000 -347 Level Denver Center
Thu 08:11:56 AM 40.4756 -102.4161 256° West 447 514 37,300 -1,636 Descending Denver Center
Thu 08:12:57 AM 40.4431 -102.5942 257° West 450 518 34,700 -2,331 Descending Denver Center
Thu 08:13:57 AM 40.4158 -102.7375 256° West 445 512 32,600 -2,182 Descending Denver Center
Thu 08:14:58 AM 40.3872 -102.8933 256° West 441 507 30,300 -2,262 Descending Denver Center
Thu 08:15:59 AM 40.3589 -103.0442 256° West 430 495 28,000 -2,231 Descending Denver Center
Thu 08:16:59 AM 40.3300 -103.1872 255° West 410 472 25,800 -2,132 Descending Denver Center
Thu 08:18:00 AM 40.3039 -103.3258 256° West 396 456 23,700 -2,033 Descending Denver Center
Thu 08:19:00 AM 40.2772 -103.4636 256° West 393 452 21,700 -1,934 Descending Denver Center
Thu 08:20:01 AM 40.2508 -103.5925 255° West 373 429 19,800 -1,869 Descending Denver Center
Thu 08:21:02 AM 40.2225 -103.7356 256° West 358 412 17,900 -1,438 Descending Denver Center
Thu 08:22:02 AM 40.2014 -103.8522 257° West 333 383 16,900 -1,091 Descending Denver Center
Thu 08:23:03 AM 40.2125 -103.9694 277° West 328 377 15,700 -1,230 Descending Denver Center
Thu 08:24:04 AM 40.2214 -104.0792 276° West 309 356 14,400 -1,328 Descending Denver Center
Thu 08:25:05 AM 40.2333 -104.1981 278° West 308 354 13,000 -1,140 Descending Denver Center
Thu 08:26:05 AM 40.2364 -104.3044 272° West 294 338 12,100 -992 Descending Denver Center
Thu 08:27:06 AM 40.2294 -104.3983 264° West 264 304 11,000 -1,230 Descending Denver Center
Thu 08:28:07 AM 40.2094 -104.4850 253° West 252 290 9,600 -984 Descending Denver Center
Thu 08:29:08 AM 40.1711 -104.5619 237° Southwest 252 290 9,000 -295 Descending Denver Center
Thu 08:30:09 AM 40.1333 -104.6364 236° Southwest 248 285 9,000 -246 Level Denver Center
Thu 08:31:10 AM 40.0800 -104.6914 218° Southwest 244 281 8,500 -694 Descending Denver Center
Thu 08:32:10 AM 40.0136 -104.6842 175° South 241 277 7,600 -992 Descending Denver Center
Thu 08:33:11 AM 39.9597 -104.6864 182° South 196 226 6,500 -934 Descending Denver Center
Thu 08:34:12 AM 39.9172 -104.6864 180° South 157 181 5,700 -590 Descending Denver Center
Thu 08:35:13 AM 39.8811 -104.6869 181° South 132 152 5,300 -393 Descending Denver Center

Login

Don't have an account? Register now (free) for customized features, flight alerts, and more!